createdAt,value
2023-04-29T00:01:39.773Z,39.34
2023-04-29T00:04:11.084Z,39.65
2023-04-29T00:06:44.151Z,39.84
2023-04-29T00:09:15.705Z,39.96
2023-04-29T00:11:57.381Z,39.92
2023-04-29T00:14:29.086Z,39.94
2023-04-29T00:16:59.477Z,40.35
2023-04-29T00:19:29.601Z,40.44
2023-04-29T00:22:03.338Z,40.22
2023-04-29T00:24:36.043Z,40.23
2023-04-29T00:27:06.679Z,40.59
2023-04-29T00:29:40.595Z,40.63
2023-04-29T00:32:12.609Z,40.70
2023-04-29T00:34:42.740Z,40.82
2023-04-29T00:37:15.952Z,41.05
2023-04-29T00:39:52.425Z,41.14
2023-04-29T00:42:25.022Z,41.28
2023-04-29T00:52:38.138Z,41.38
2023-04-29T00:55:24.299Z,41.57
2023-04-29T00:55:25.000Z,41.22
2023-04-29T00:57:55.967Z,41.72
2023-04-29T01:00:29.288Z,41.99
2023-04-29T01:03:29.150Z,42.20
2023-04-29T01:06:09.232Z,42.50
2023-04-29T01:08:53.868Z,42.53
2023-04-29T01:11:33.047Z,42.49
2023-04-29T01:14:04.760Z,42.72
2023-04-29T01:16:41.254Z,42.81
2023-04-29T01:19:24.118Z,42.98
2023-04-29T01:21:54.232Z,42.94
2023-04-29T01:24:24.622Z,43.06
2023-04-29T01:26:59.676Z,43.23
2023-04-29T01:29:36.764Z,43.44
2023-04-29T01:32:11.281Z,43.34
2023-04-29T01:34:45.241Z,43.44
2023-04-29T01:37:31.889Z,43.32
2023-04-29T01:40:13.103Z,43.36
2023-04-29T01:42:56.047Z,43.53
2023-04-29T01:45:28.328Z,43.53
2023-04-29T01:48:01.285Z,43.50
2023-04-29T01:50:32.184Z,43.61
2023-04-29T01:53:02.777Z,43.62
2023-04-29T01:55:32.439Z,43.91
2023-04-29T01:58:02.468Z,43.98
2023-04-29T02:00:32.323Z,44.05
2023-04-29T02:03:02.660Z,44.15
2023-04-29T02:05:33.858Z,44.25
2023-04-29T02:08:07.014Z,44.35
2023-04-29T02:10:36.831Z,44.51
2023-04-29T02:13:07.456Z,44.70
2023-04-29T02:15:36.749Z,44.73
2023-04-29T02:18:06.465Z,44.77
2023-04-29T02:20:35.763Z,45.04
2023-04-29T02:23:07.423Z,44.91
2023-04-29T02:25:37.770Z,44.98
2023-04-29T02:28:08.485Z,45.01
2023-04-29T02:30:38.185Z,45.14
2023-04-29T02:33:08.647Z,45.16
2023-04-29T02:35:38.392Z,45.23
2023-04-29T02:38:08.470Z,45.44
2023-04-29T02:40:43.518Z,45.34
2023-04-29T02:43:13.491Z,45.47
2023-04-29T02:45:42.987Z,45.57
2023-04-29T02:48:13.112Z,45.55
2023-04-29T02:50:42.512Z,45.61
2023-04-29T02:53:11.662Z,45.83
2023-04-29T02:55:41.637Z,45.92
2023-04-29T02:58:11.958Z,45.90
2023-04-29T03:00:43.034Z,46.01
2023-04-29T03:03:14.456Z,46.02
2023-04-29T03:05:44.786Z,46.11
2023-04-29T03:08:14.282Z,46.25
2023-04-29T03:10:46.150Z,46.14
2023-04-29T03:13:17.497Z,46.34
2023-04-29T03:15:48.243Z,46.46
2023-04-29T03:18:19.426Z,46.50
2023-04-29T03:20:48.705Z,46.56
2023-04-29T03:23:18.018Z,46.68
2023-04-29T03:25:47.482Z,46.85
2023-04-29T03:28:19.472Z,46.87
2023-04-29T03:30:48.949Z,47.00
2023-04-29T03:33:18.381Z,47.10
2023-04-29T03:35:47.729Z,47.18
2023-04-29T03:38:17.950Z,47.34
2023-04-29T03:40:48.953Z,47.22
2023-04-29T03:43:18.729Z,47.51
2023-04-29T03:45:48.697Z,47.91
2023-04-29T03:48:18.477Z,48.25
2023-04-29T03:50:48.290Z,48.16
2023-04-29T03:53:18.526Z,47.90
2023-04-29T03:55:48.547Z,48.24
2023-04-29T03:58:19.037Z,48.78
2023-04-29T04:00:48.516Z,48.95
2023-04-29T04:03:18.889Z,48.77
2023-04-29T04:05:48.754Z,49.05
2023-04-29T04:08:24.447Z,49.39
2023-04-29T04:11:04.742Z,49.51
2023-04-29T04:13:35.738Z,49.44
2023-04-29T04:16:12.552Z,49.60
2023-04-29T04:18:42.741Z,49.76
2023-04-29T04:21:13.384Z,49.75
2023-04-29T04:23:44.293Z,49.77
2023-04-29T04:26:13.909Z,49.79
2023-04-29T04:28:44.561Z,49.69
2023-04-29T04:31:14.812Z,49.56
2023-04-29T04:33:44.147Z,49.74
2023-04-29T04:36:17.033Z,50.01
2023-04-29T04:38:46.582Z,50.26
2023-04-29T04:41:20.055Z,50.48
2023-04-29T04:43:58.484Z,49.88
2023-04-29T04:46:29.149Z,49.70
2023-04-29T04:48:59.128Z,49.52
2023-04-29T04:51:29.223Z,49.30
2023-04-29T04:53:58.864Z,49.27
2023-04-29T04:57:17.580Z,48.93
2023-04-29T04:59:42.965Z,48.89
2023-04-29T05:02:16.963Z,48.55
2023-04-29T05:05:28.830Z,48.57
2023-04-29T05:08:12.877Z,48.47
2023-04-29T05:10:46.731Z,48.43
2023-04-29T05:13:27.622Z,48.07
2023-04-29T05:16:08.983Z,47.74
2023-04-29T05:18:38.638Z,47.60
2023-04-29T05:21:12.528Z,47.31
2023-04-29T05:23:48.838Z,46.64
2023-04-29T05:26:19.111Z,46.15
2023-04-29T05:28:48.486Z,45.88
2023-04-29T05:31:18.437Z,45.42
2023-04-29T05:33:48.105Z,45.17
2023-04-29T05:36:20.633Z,44.97
2023-04-29T05:38:52.278Z,44.77
2023-04-29T05:41:41.058Z,44.46
2023-04-29T05:44:16.217Z,44.31
2023-04-29T05:46:48.850Z,43.89
2023-04-29T05:49:21.387Z,43.58
2023-04-29T05:51:55.634Z,43.34
2023-04-29T05:54:29.916Z,43.23
2023-04-29T05:59:55.543Z,43.50
2023-04-29T06:02:28.802Z,43.08
2023-04-29T06:05:06.114Z,42.97
2023-04-29T06:07:42.503Z,42.35
2023-04-29T06:10:16.279Z,42.09
2023-04-29T06:12:52.571Z,41.99
2023-04-29T06:15:27.290Z,41.91
2023-04-29T06:18:05.061Z,41.97
2023-04-29T06:21:01.627Z,42.01
2023-04-29T06:23:35.203Z,41.91
2023-04-29T06:26:10.777Z,41.97
2023-04-29T06:28:43.700Z,41.81
2023-04-29T06:31:16.631Z,41.51
2023-04-29T06:33:49.261Z,41.31
2023-04-29T06:36:22.113Z,41.34
2023-04-29T06:38:56.011Z,41.19
2023-04-29T06:41:29.376Z,41.03
2023-04-29T06:44:02.100Z,41.08
2023-04-29T06:46:37.290Z,40.89
2023-04-29T06:49:12.332Z,40.96
2023-04-29T06:51:45.242Z,41.08
2023-04-29T06:54:30.603Z,41.03
2023-04-29T06:57:04.394Z,40.41
2023-04-29T06:59:41.424Z,40.39
2023-04-29T07:02:16.762Z,40.54
2023-04-29T07:05:37.734Z,40.63
2023-04-29T07:08:21.423Z,40.64
2023-04-29T07:11:15.836Z,40.50
2023-04-29T07:14:01.309Z,40.22
2023-04-29T07:16:41.343Z,40.12
2023-04-29T07:19:20.341Z,40.16
2023-04-29T07:22:05.361Z,40.26
2023-04-29T07:24:42.639Z,40.08
2023-04-29T07:27:17.307Z,40.09
2023-04-29T07:29:54.457Z,40.05
2023-04-29T07:32:31.943Z,40.03
2023-04-29T07:35:11.235Z,39.71
2023-04-29T07:37:44.320Z,39.80
2023-04-29T07:40:18.021Z,39.79
2023-04-29T07:42:50.878Z,39.62
2023-04-29T07:45:24.298Z,39.78
2023-04-29T07:48:03.067Z,39.55
2023-04-29T07:50:39.418Z,39.29
2023-04-29T07:53:12.840Z,39.15
2023-04-29T07:55:45.943Z,39.32
2023-04-29T07:58:18.850Z,39.24
2023-04-29T08:00:52.169Z,39.27
2023-04-29T08:03:24.848Z,39.05
2023-04-29T08:06:02.304Z,39.08
2023-04-29T08:08:37.368Z,39.03
2023-04-29T08:11:17.398Z,38.57
2023-04-29T08:13:57.261Z,38.47
2023-04-29T08:16:30.758Z,38.42
2023-04-29T08:19:03.580Z,38.37
2023-04-29T08:21:39.502Z,38.30
2023-04-29T08:24:12.230Z,38.25
2023-04-29T08:26:44.908Z,38.17
2023-04-29T08:29:17.584Z,38.23
2023-04-29T08:31:50.463Z,37.91
2023-04-29T08:34:24.197Z,37.95
2023-04-29T08:36:58.644Z,37.67
2023-04-29T08:39:32.244Z,37.81
2023-04-29T08:42:13.793Z,37.84
2023-04-29T08:44:48.108Z,37.59
2023-04-29T08:47:21.596Z,37.46
2023-04-29T08:49:57.080Z,37.05
2023-04-29T08:52:29.991Z,36.98
2023-04-29T08:55:03.780Z,37.36
2023-04-29T08:57:40.442Z,37.36
2023-04-29T09:00:14.851Z,37.33
2023-04-29T09:02:51.110Z,37.15
2023-04-29T09:05:27.423Z,36.48
2023-04-29T09:08:04.107Z,36.21
2023-04-29T09:10:40.130Z,36.39
2023-04-29T09:13:28.985Z,36.30
2023-04-29T09:16:01.891Z,36.83
2023-04-29T09:18:49.700Z,36.76
2023-04-29T09:21:23.911Z,36.76
2023-04-29T09:23:58.256Z,36.72
2023-04-29T09:26:37.468Z,36.66
2023-04-29T09:29:14.399Z,36.10
2023-04-29T09:31:47.986Z,36.31
2023-04-29T09:34:31.604Z,36.67
2023-04-29T09:37:05.168Z,35.70
2023-04-29T09:39:42.676Z,35.57
2023-04-29T09:42:16.450Z,35.84
2023-04-29T09:44:49.159Z,36.19
2023-04-29T09:47:33.423Z,36.24
2023-04-29T09:50:16.738Z,36.03
2023-04-29T09:52:49.617Z,36.01
2023-04-29T09:55:22.473Z,36.08
2023-04-29T09:57:55.152Z,35.73
2023-04-29T10:00:30.005Z,35.90
2023-04-29T10:03:07.294Z,35.92
2023-04-29T10:05:40.885Z,35.66
2023-04-29T10:08:14.368Z,34.43
2023-04-29T10:10:58.242Z,34.69
2023-04-29T10:13:32.998Z,34.47
2023-04-29T10:16:18.888Z,35.27
2023-04-29T10:19:03.778Z,34.96
2023-04-29T10:21:39.516Z,34.13
2023-04-29T10:24:16.402Z,33.88
2023-04-29T10:26:52.392Z,34.03
2023-04-29T10:29:28.478Z,34.93
2023-04-29T10:32:03.804Z,34.70
2023-04-29T10:34:39.112Z,34.85
2023-04-29T10:37:14.617Z,33.83
2023-04-29T10:39:59.526Z,34.27
2023-04-29T10:42:40.669Z,34.52
2023-04-29T10:45:28.826Z,34.56
2023-04-29T10:48:25.717Z,33.96
2023-04-29T10:51:10.473Z,34.18
2023-04-29T10:54:12.589Z,34.45
2023-04-29T10:56:56.875Z,33.86
2023-04-29T10:59:48.560Z,33.73
2023-04-29T11:02:21.611Z,34.30
2023-04-29T11:05:19.174Z,34.20
2023-04-29T11:08:10.922Z,33.99
2023-04-29T11:10:47.628Z,33.85
2023-04-29T11:13:39.208Z,33.99
2023-04-29T11:16:13.842Z,32.85
2023-04-29T11:19:12.537Z,33.77
2023-04-29T11:21:45.955Z,33.76
2023-04-29T11:24:19.479Z,33.82
2023-04-29T11:26:53.801Z,33.67
2023-04-29T11:29:27.449Z,33.68
2023-04-29T11:32:03.572Z,33.51
2023-04-29T11:34:38.008Z,33.69
2023-04-29T11:37:12.527Z,33.56
2023-04-29T11:39:45.403Z,33.54
2023-04-29T11:42:23.667Z,33.34
2023-04-29T11:45:00.562Z,33.02
2023-04-29T11:47:34.396Z,32.95
2023-04-29T11:50:11.786Z,33.43
2023-04-29T11:52:47.984Z,33.15
2023-04-29T11:55:21.842Z,33.08
2023-04-29T11:57:55.843Z,32.68
2023-04-29T12:00:28.379Z,33.05
2023-04-29T12:03:02.704Z,33.51
2023-04-29T12:05:40.718Z,33.49
2023-04-29T12:08:14.675Z,32.85
2023-04-29T12:10:48.237Z,33.14
2023-04-29T12:13:22.284Z,32.83
2023-04-29T12:15:58.584Z,33.28
2023-04-29T12:18:32.133Z,33.46
2023-04-29T12:21:05.143Z,33.39
2023-04-29T12:23:39.699Z,33.22
2023-04-29T12:26:13.370Z,33.33
2023-04-29T12:28:46.532Z,33.36
2023-04-29T12:31:19.321Z,33.29
2023-04-29T12:33:55.567Z,33.43
2023-04-29T12:36:29.953Z,33.33
2023-04-29T12:39:03.272Z,33.47
2023-04-29T12:41:42.056Z,33.35
2023-04-29T12:44:17.145Z,32.93
2023-04-29T12:46:52.649Z,32.51
2023-04-29T12:49:30.011Z,31.43
2023-04-29T12:52:04.425Z,31.75
2023-04-29T12:54:44.350Z,31.94
2023-04-29T12:57:17.536Z,31.95
2023-04-29T12:59:51.058Z,31.52
2023-04-29T13:02:26.704Z,29.18
2023-04-29T13:05:00.313Z,29.29
2023-04-29T13:07:33.469Z,29.09
2023-04-29T13:10:09.726Z,29.87
2023-04-29T13:12:43.789Z,30.67
2023-04-29T13:15:17.112Z,30.32
2023-04-29T13:17:50.851Z,30.67
2023-04-29T13:20:23.839Z,30.89
2023-04-29T13:22:56.834Z,30.84
2023-04-29T13:25:30.920Z,30.32
2023-04-29T13:28:05.602Z,29.99
2023-04-29T13:30:42.359Z,29.83
2023-04-29T13:33:15.046Z,30.07
2023-04-29T13:35:49.859Z,28.98
2023-04-29T13:38:24.152Z,28.66
2023-04-29T13:40:57.609Z,28.73
2023-04-29T13:43:37.775Z,28.57
2023-04-29T13:46:15.208Z,27.60
2023-04-29T14:12:12.100Z,23.97
2023-04-29T14:14:46.181Z,26.16
2023-04-29T14:17:20.428Z,26.19
2023-04-29T14:19:53.870Z,26.19
2023-04-29T14:22:29.501Z,24.21
2023-04-29T14:25:04.200Z,25.28
2023-04-29T14:27:38.437Z,25.95
2023-04-29T14:30:16.024Z,23.56
2023-04-29T14:32:51.344Z,22.92
2023-04-29T14:35:24.636Z,23.48
2023-04-29T14:37:57.772Z,24.81
2023-04-29T14:40:31.228Z,24.84
2023-04-29T14:43:13.405Z,24.03
2023-04-29T14:45:47.598Z,24.87
2023-04-29T14:48:21.485Z,24.10
2023-04-29T14:50:54.021Z,24.32
2023-04-29T14:53:28.533Z,24.53
2023-04-29T14:56:01.663Z,24.32
2023-04-29T14:58:34.440Z,23.96
2023-04-29T15:01:09.182Z,24.65
2023-04-29T15:03:44.464Z,23.50
2023-04-29T15:06:18.806Z,23.99
2023-04-29T15:08:51.480Z,23.54
2023-04-29T15:11:29.208Z,23.49
2023-04-29T15:14:07.490Z,23.47
2023-04-29T15:16:44.422Z,24.12
2023-04-29T15:19:18.015Z,24.88
2023-04-29T15:21:50.948Z,25.22
2023-04-29T15:24:24.398Z,25.45
2023-04-29T15:26:58.246Z,25.18
2023-04-29T15:29:35.058Z,25.17
2023-04-29T15:32:10.908Z,25.21
2023-04-29T15:34:44.006Z,25.59
2023-04-29T15:37:17.410Z,25.88
2023-04-29T15:39:50.877Z,26.09
2023-04-29T15:42:24.319Z,26.01
2023-04-29T15:44:57.892Z,25.84
2023-04-29T15:47:31.078Z,25.91
2023-04-29T15:50:05.705Z,25.94
2023-04-29T15:52:40.536Z,26.18
2023-04-29T15:55:16.803Z,26.47
2023-04-29T15:57:52.254Z,26.63
2023-04-29T16:00:25.030Z,26.66
2023-04-29T16:02:58.131Z,27.24
2023-04-29T16:05:31.831Z,27.58
2023-04-29T16:08:06.318Z,27.82
2023-04-29T16:10:47.018Z,27.82
2023-04-29T16:13:25.531Z,28.12
2023-04-29T16:15:58.918Z,28.00
2023-04-29T16:18:33.327Z,28.11
2023-04-29T16:21:06.239Z,28.29
2023-04-29T16:23:40.816Z,28.32
2023-04-29T16:26:16.148Z,28.48
2023-04-29T16:28:49.342Z,28.55
2023-04-29T16:31:23.462Z,28.77
2023-04-29T16:33:57.287Z,28.81
2023-04-29T16:36:30.294Z,28.85
2023-04-29T16:39:04.922Z,29.16
2023-04-29T16:41:56.606Z,29.19
2023-04-29T16:44:29.215Z,29.42
2023-04-29T16:47:02.834Z,29.58
2023-04-29T16:49:35.504Z,29.70
2023-04-29T16:52:09.654Z,29.82
2023-04-29T16:54:44.792Z,29.75
2023-04-29T16:57:17.435Z,29.91
2023-04-29T16:59:50.105Z,30.00
2023-04-29T17:02:24.208Z,30.20
2023-04-29T17:04:57.039Z,30.57
2023-04-29T17:07:30.795Z,30.71
2023-04-29T17:10:03.653Z,30.87
2023-04-29T17:12:37.130Z,30.95
2023-04-29T17:15:13.361Z,31.14
2023-04-29T17:17:47.601Z,31.46
2023-04-29T17:20:21.852Z,31.69
2023-04-29T17:22:58.148Z,31.79
2023-04-29T17:25:33.684Z,32.03
2023-04-29T17:28:07.722Z,32.30
2023-04-29T17:30:55.531Z,32.37
2023-04-29T17:33:35.577Z,32.30
2023-04-29T17:36:19.313Z,32.39
2023-04-29T17:38:52.026Z,32.76
2023-04-29T17:41:25.798Z,32.99
2023-04-29T17:43:59.724Z,33.22
2023-04-29T17:46:33.210Z,33.16
2023-04-29T17:49:06.370Z,33.07
2023-04-29T17:51:43.116Z,33.07
2023-04-29T17:54:21.181Z,33.36
2023-04-29T17:56:54.150Z,33.55
2023-04-29T17:59:27.666Z,33.64
2023-04-29T18:02:01.474Z,33.87
2023-04-29T18:04:34.574Z,33.89
2023-04-29T18:07:07.913Z,34.11
2023-04-29T18:09:41.827Z,34.44
2023-04-29T18:12:16.174Z,34.71
2023-04-29T18:14:52.348Z,34.96
2023-04-29T18:17:31.679Z,34.82
2023-04-29T18:20:06.500Z,34.72
2023-04-29T18:22:39.547Z,34.82
2023-04-29T18:25:19.239Z,34.96
2023-04-29T18:27:56.989Z,35.16
2023-04-29T18:30:33.238Z,35.56
2023-04-29T18:33:06.500Z,35.37
2023-04-29T18:35:42.131Z,35.61
2023-04-29T18:38:17.557Z,35.89
2023-04-29T18:40:50.661Z,36.03
2023-04-29T18:43:28.438Z,36.24
2023-04-29T18:46:02.770Z,36.30
2023-04-29T18:48:36.683Z,36.36
2023-04-29T18:51:12.741Z,36.49
2023-04-29T18:53:48.047Z,36.53
2023-04-29T18:56:22.018Z,36.54
2023-04-29T18:58:55.292Z,36.25
2023-04-29T19:01:29.258Z,36.58
2023-04-29T19:04:04.623Z,36.72
2023-04-29T19:06:41.167Z,36.93
2023-04-29T19:09:15.651Z,37.04
2023-04-29T19:11:48.998Z,36.97
2023-04-29T19:14:22.566Z,36.97
2023-04-29T19:16:55.573Z,37.21
2023-04-29T19:19:29.114Z,37.36
2023-04-29T19:22:05.530Z,37.26
2023-04-29T19:24:44.150Z,37.33
2023-04-29T19:27:17.350Z,37.50
2023-04-29T19:29:51.875Z,37.63
2023-04-29T19:35:51.073Z,38.14
2023-04-29T19:38:24.553Z,38.24
2023-04-29T19:41:03.148Z,38.39
2023-04-29T19:43:48.014Z,38.44
2023-04-29T19:46:31.723Z,38.54
2023-04-29T19:49:13.146Z,38.52
2023-04-29T19:51:50.932Z,38.59
2023-04-29T19:54:24.033Z,38.54
2023-04-29T19:56:57.198Z,38.53
2023-04-29T19:59:30.761Z,38.64
2023-04-29T20:02:04.138Z,38.77
2023-04-29T20:04:38.434Z,38.92
2023-04-29T20:07:13.993Z,39.11
2023-04-29T20:09:51.676Z,39.22
2023-04-29T20:12:29.237Z,39.27
2023-04-29T20:15:02.240Z,39.26
2023-04-29T20:17:39.258Z,39.53
2023-04-29T20:20:12.928Z,39.70
2023-04-29T20:22:46.477Z,39.76
2023-04-29T20:25:19.589Z,39.87
2023-04-29T20:27:54.663Z,39.93
2023-04-29T20:30:30.408Z,40.17
2023-04-29T20:33:03.379Z,40.33
2023-04-29T20:35:39.961Z,40.51
2023-04-29T20:38:29.339Z,40.47
2023-04-29T20:41:08.087Z,40.69
2023-04-29T20:43:52.837Z,40.68
2023-04-29T20:46:26.208Z,40.84
2023-04-29T20:48:59.059Z,40.77
2023-04-29T20:51:33.115Z,40.73
2023-04-29T20:54:08.907Z,40.58
2023-04-29T20:56:45.832Z,40.70
2023-04-29T20:59:20.153Z,40.86
2023-04-29T21:01:55.260Z,41.01
2023-04-29T21:04:28.818Z,41.25
2023-04-29T21:07:03.175Z,41.35
2023-04-29T21:09:52.529Z,41.35
2023-04-29T21:12:26.428Z,41.42
2023-04-29T21:14:59.905Z,41.33
2023-04-29T21:17:32.647Z,41.65
2023-04-29T21:20:13.821Z,41.61
2023-04-29T21:22:47.480Z,41.93
2023-04-29T21:25:21.974Z,42.04
2023-04-29T21:27:56.056Z,42.24
2023-04-29T21:30:29.023Z,42.30
2023-04-29T21:33:01.679Z,42.65
2023-04-29T21:35:35.067Z,42.65
2023-04-29T21:38:08.599Z,42.76
2023-04-29T21:40:43.833Z,42.83
2023-04-29T21:43:17.272Z,42.92
2023-04-29T21:45:52.101Z,43.11
2023-04-29T21:48:26.672Z,43.17
2023-04-29T21:51:05.237Z,43.31
2023-04-29T21:53:38.374Z,43.46
2023-04-29T21:56:11.855Z,43.62
2023-04-29T21:58:44.464Z,43.70
2023-04-29T22:01:29.578Z,43.84
2023-04-29T22:04:02.000Z,43.94
2023-04-29T22:06:38.591Z,44.17
2023-04-29T22:09:12.769Z,44.29
2023-04-29T22:11:45.859Z,44.41
2023-04-29T22:14:31.473Z,44.68
2023-04-29T22:17:04.198Z,44.78
2023-04-29T22:19:37.055Z,44.99
2023-04-29T22:22:09.872Z,45.07
2023-04-29T22:24:42.733Z,45.38
2023-04-29T22:27:16.639Z,45.37
2023-04-29T22:29:49.453Z,45.53
2023-04-29T22:32:25.080Z,45.86
2023-04-29T22:35:00.562Z,46.09
2023-04-29T22:37:34.080Z,46.21
2023-04-29T22:40:09.207Z,46.24
2023-04-29T22:42:43.792Z,46.25
2023-04-29T22:45:18.360Z,46.48
2023-04-29T22:47:52.024Z,46.65
2023-04-29T22:50:26.106Z,46.68
2023-04-29T22:52:58.735Z,46.84
2023-04-29T22:55:31.379Z,46.84
2023-04-29T22:58:04.305Z,46.99
2023-04-29T23:00:37.398Z,47.08
2023-04-29T23:03:10.159Z,47.11
2023-04-29T23:05:43.102Z,47.42
2023-04-29T23:08:16.253Z,47.56
2023-04-29T23:10:52.390Z,47.64
2023-04-29T23:13:25.981Z,47.86
2023-04-29T23:16:00.898Z,47.80
2023-04-29T23:18:33.826Z,47.98
2023-04-29T23:21:07.704Z,47.95
2023-04-29T23:23:40.780Z,48.11
2023-04-29T23:26:13.639Z,48.23
2023-04-29T23:28:46.704Z,48.35
2023-04-29T23:31:20.067Z,48.47
2023-04-29T23:33:53.589Z,48.64
2023-04-29T23:36:27.960Z,48.74
2023-04-29T23:39:01.191Z,48.71
2023-04-29T23:41:34.405Z,48.88
2023-04-29T23:44:07.593Z,48.96
2023-04-29T23:46:41.101Z,49.01
2023-04-29T23:49:14.402Z,49.19
2023-04-29T23:51:47.453Z,49.21
2023-04-29T23:54:20.774Z,49.26
2023-04-29T23:56:54.640Z,49.41
2023-04-29T23:59:27.539Z,49.21
